Time;durP1;ratioP1;P1;durP2;ratioP2;P2;SDS_P1;SDS_P2;PMS_P1;PMS_P2;Temp;Humidity;BMP_temperature;BMP_pressure;BME280_temperature;BME280_humidity;BME280_pressure;Samples;Min_cycle;Max_cycle;Signal;HPM_P1;HPM_P2
2023/07/14 00:02:16;;;;;;;;;7.20;7.20;;;;;22.04;79.68;99606.00;6308492;20;2745124;-47
2023/07/14 00:04:45;;;;;;;;;9.00;8.33;;;;;22.15;79.54;99611.09;6286299;20;2750349;-45
2023/07/14 00:07:14;;;;;;;;;7.00;6.80;;;;;22.18;79.27;99607.19;6339486;20;2737839;-46
2023/07/14 00:09:44;;;;;;;;;9.20;9.20;;;;;22.23;79.02;99611.13;6312601;20;2760689;-47
2023/07/14 00:12:14;;;;;;;;;9.20;7.80;;;;;22.12;80.36;99611.47;6314759;20;2749244;-45
2023/07/14 00:14:42;;;;;;;;;8.33;7.33;;;;;22.08;80.15;99602.72;6294751;20;2744069;-49
2023/07/14 00:17:14;;;;;;;;;7.67;7.67;;;;;21.98;81.33;99602.03;6316027;20;2746085;-47
2023/07/14 00:19:44;;;;;;;;;8.80;7.80;;;;;22.02;81.51;99608.88;6345514;20;2755482;-45
2023/07/14 00:22:14;;;;;;;;;7.00;7.00;;;;;22.02;81.35;99619.81;6295605;20;2748253;-45
2023/07/14 00:24:44;;;;;;;;;6.20;6.20;;;;;21.89;83.65;99619.47;6345045;20;2738796;-46
2023/07/14 00:27:20;;;;;;;;;7.00;7.00;;;;;21.87;83.56;99622.34;6309477;20;2737808;-47
2023/07/14 00:29:49;;;;;;;;;7.00;7.00;;;;;21.63;84.35;99625.91;6320003;20;2752485;-47
2023/07/14 00:32:22;;;;;;;;;10.20;9.40;;;;;21.54;85.06;99626.91;6343734;20;2768023;-46
2023/07/14 00:34:50;;;;;;;;;10.00;8.67;;;;;21.58;85.05;99632.91;6295861;20;2768114;-49
2023/07/14 00:37:19;;;;;;;;;8.40;7.00;;;;;21.39;86.52;99637.63;6345874;20;2748601;-48
2023/07/14 00:39:48;;;;;;;;;8.80;7.60;;;;;21.55;86.99;99639.53;6313116;20;2749259;-47
2023/07/14 00:42:16;;;;;;;;;9.67;9.00;;;;;21.62;86.33;99647.94;6288162;20;2767042;-46
2023/07/14 00:44:49;;;;;;;;;7.40;7.40;;;;;21.34;87.26;99642.69;6344234;20;2737800;-48
2023/07/14 00:47:27;;;;;;;;;11.00;10.00;;;;;21.39;87.37;99644.97;6291879;20;2786817;-46
2023/07/14 00:49:56;;;;;;;;;8.00;8.00;;;;;21.38;87.39;99649.56;6319893;20;2739912;-50
2023/07/14 00:52:35;;;;;;;;;7.00;6.50;;;;;21.74;85.77;99648.47;6345536;20;1845077;-47
2023/07/14 00:55:31;;;;;;;;;10.60;8.80;;;;;21.69;86.25;99644.34;6309644;20;2763821;-46
2023/07/14 00:58:00;;;;;;;;;11.33;10.00;;;;;21.39;87.66;99651.28;6283713;20;2786929;-46
2023/07/14 01:00:30;;;;;;;;;7.40;7.40;;;;;21.35;87.27;99649.00;6343858;20;2743003;-47
2023/07/14 01:03:03;;;;;;;;;7.67;7.67;;;;;21.25;88.45;99650.00;6288982;20;2735829;-46
2023/07/14 01:05:33;;;;;;;;;9.60;9.60;;;;;21.31;87.95;99653.09;6342048;20;2780531;-47
2023/07/14 01:08:01;;;;;;;;;8.00;7.67;;;;;;;;6281384;20;2750409;-47
2023/07/14 01:10:29;;;;;;;;;10.67;9.67;;;;;21.23;88.69;99659.38;6316953;20;2781674;-49
2023/07/14 01:13:01;;;;;;;;;10.00;6.67;;;;;;;;6318119;20;2752616;-49
2023/07/14 01:15:29;;;;;;;;;9.00;8.67;;;;;21.05;90.74;99654.84;6314474;20;2746129;-51
2023/07/14 01:17:59;;;;;;;;;8.80;8.80;;;;;21.39;88.53;99658.63;6337205;20;2749323;-45
2023/07/14 01:20:28;;;;;;;;;7.33;7.33;;;;;21.12;90.08;99659.66;6295275;20;2750490;-45
2023/07/14 01:23:21;;;;;;;;;8.60;8.60;;;;;21.25;89.72;99666.38;6343257;20;2746171;-47
2023/07/14 01:26:29;;;;;;;;;6.33;6.33;;;;;21.09;91.59;99659.97;6288613;20;2746696;-47
2023/07/14 01:28:58;;;;;;;;;10.00;9.00;;;;;21.24;90.35;99661.06;6336740;20;2771146;-48
2023/07/14 01:31:26;;;;;;;;;8.67;8.67;;;;;21.07;91.58;99667.50;6287051;20;2752536;-51
2023/07/14 01:33:56;;;;;;;;;8.40;8.40;;;;;21.18;90.28;99668.06;6342737;20;2745168;-46
2023/07/14 01:36:25;;;;;;;;;10.33;10.33;;;;;21.36;89.28;99667.13;6289748;20;2789869;-47
2023/07/14 01:38:54;;;;;;;;;10.00;10.00;;;;;21.00;90.91;99657.19;6322331;20;2783623;-49
2023/07/14 01:41:22;;;;;;;;;11.00;11.00;;;;;20.97;92.08;99667.59;6317667;20;2797258;-47
2023/07/14 01:43:50;;;;;;;;;11.33;10.00;;;;;21.04;90.35;99671.41;6313170;20;2788845;-49
2023/07/14 01:46:22;;;;;;;;;10.60;10.60;;;;;21.09;91.54;99665.44;6340237;20;2788871;-47
2023/07/14 01:48:57;;;;;;;;;10.00;9.00;;;;;20.79;93.77;99667.66;6283840;20;2774274;-47
2023/07/14 01:51:32;;;;;;;;;9.00;9.00;;;;;20.93;93.71;99666.19;6317272;20;3465971;-51
2023/07/14 01:54:25;;;;;;;;;11.33;11.33;;;;;20.85;94.78;99677.06;6314557;20;3517953;-48
2023/07/14 01:56:58;;;;;;;;;11.00;10.00;;;;;20.64;95.66;99671.97;6312842;20;3514966;-50
2023/07/14 01:59:33;;;;;;;;;11.00;8.00;;;;;20.54;96.61;99681.13;6317467;20;2767054;-46
2023/07/14 02:02:06;;;;;;;;;8.67;8.67;;;;;20.50;96.08;99687.88;6320290;20;2754456;-48
2023/07/14 02:04:38;;;;;;;;;11.00;9.67;;;;;20.34;97.10;99688.59;6311746;20;3505480;-47
2023/07/14 02:07:12;;;;;;;;;11.00;11.00;;;;;20.36;97.96;99689.31;6337576;20;2788391;-49
2023/07/14 02:09:41;;;;;;;;;9.67;9.67;;;;;20.24;98.55;99692.41;6290994;20;2779626;-50
2023/07/14 02:12:25;;;;;;;;;11.67;11.67;;;;;20.26;100.00;99696.72;6316166;20;2803506;-46
2023/07/14 02:15:06;;;;;;;;;9.00;8.00;;;;;20.29;100.00;99701.00;6322941;20;2746216;-46
2023/07/14 02:17:37;;;;;;;;;11.67;9.67;;;;;20.42;100.00;99701.44;6283678;20;3507666;-47
2023/07/14 02:20:15;;;;;;;;;10.00;10.00;;;;;20.12;100.00;99700.00;6314099;20;2781681;-51
2023/07/14 02:22:45;;;;;;;;;9.33;8.00;;;;;20.41;99.60;99702.47;6313999;20;2750314;-46
2023/07/14 02:25:17;;;;;;;;;11.67;10.00;;;;;20.36;99.36;99713.84;6310229;20;3503524;-46
2023/07/14 02:27:46;;;;;;;;;9.00;9.00;;;;;20.36;99.72;99708.38;6315913;20;2756642;-50
2023/07/14 02:30:18;;;;;;;;;11.00;11.00;;;;;20.23;100.00;99702.47;6318939;20;2785737;-49
2023/07/14 02:33:05;;;;;;;;;10.33;10.33;;;;;20.39;99.84;99713.53;6315815;20;3491954;-48
2023/07/14 02:35:46;;;;;;;;;11.00;11.00;;;;;20.33;99.81;99708.72;6311706;20;3512971;-49
2023/07/14 02:38:17;;;;;;;;;11.00;11.00;;;;;20.17;100.00;99712.13;6314020;20;3528361;-47
2023/07/14 02:40:54;;;;;;;;;12.67;11.00;;;;;19.98;100.00;99719.59;6288268;20;2789838;-48
2023/07/14 02:43:23;;;;;;;;;13.67;11.67;;;;;19.84;100.00;99724.56;6312669;20;3519225;-51
2023/07/14 02:46:01;;;;;;;;;11.67;11.67;;;;;19.85;100.00;99731.75;6316703;20;3519048;-48
2023/07/14 02:48:34;;;;;;;;;15.67;14.33;;;;;19.77;100.00;99734.34;6285575;20;2814932;-47
2023/07/14 02:51:03;;;;;;;;;12.00;12.00;;;;;19.63;100.00;99737.56;6318517;20;2785711;-47
2023/07/14 02:53:31;;;;;;;;;12.00;12.00;;;;;19.80;100.00;99739.50;6316154;20;3505565;-46
2023/07/14 02:56:00;;;;;;;;;14.00;13.00;;;;;19.75;100.00;99739.13;6283704;20;3523299;-47
2023/07/14 02:58:28;;;;;;;;;12.67;10.67;;;;;19.77;100.00;99745.25;6317282;20;2813843;-47
2023/07/14 03:00:55;;;;;;;;;15.00;14.50;;;;;19.91;100.00;99743.88;6315064;20;2491990;-48
2023/07/14 03:03:23;;;;;;;;;14.00;11.00;;;;;20.11;100.00;99737.28;6283892;20;3526377;-49
2023/07/14 03:05:52;;;;;;;;;12.67;11.67;;;;;19.92;100.00;99745.59;6282166;20;3509872;-49
2023/07/14 03:08:20;;;;;;;;;11.00;11.00;;;;;19.85;100.00;99742.63;6319933;20;2789854;-47
2023/07/14 03:10:56;;;;;;;;;12.50;11.00;;;;;19.94;100.00;99735.41;6314514;20;2492006;-49
2023/07/14 03:13:24;;;;;;;;;15.00;14.67;;;;;20.13;100.00;99746.16;6288089;20;3542321;-49
2023/07/14 03:15:52;;;;;;;;;15.67;13.67;;;;;20.15;100.00;99746.88;6311783;20;2483809;-48
2023/07/14 03:18:20;;;;;;;;;13.67;12.67;;;;;20.15;100.00;99746.88;6316696;20;3510794;-49
2023/07/14 03:20:55;;;;;;;;;16.67;14.67;;;;;19.97;100.00;99758.78;6316351;20;3544276;-47
2023/07/14 03:23:24;;;;;;;;;11.00;11.00;;;;;20.00;100.00;99761.19;6314580;20;3519109;-46
2023/07/14 03:25:58;;;;;;;;;14.33;14.33;;;;;19.71;100.00;99762.22;6280618;20;3527357;-50
2023/07/14 03:28:28;;;;;;;;;14.00;13.00;;;;;19.61;100.00;99755.91;6281489;20;3511938;-51
2023/07/14 03:30:55;;;;;;;;;15.00;15.00;;;;;19.73;100.00;99760.19;6283019;20;2496173;-51
2023/07/14 03:33:24;;;;;;;;;15.33;15.33;;;;;19.81;100.00;99765.75;6285628;20;3551299;-46
2023/07/14 03:35:52;;;;;;;;;13.00;11.67;;;;;19.87;100.00;99762.41;6283061;20;2785808;-48
2023/07/14 03:38:20;;;;;;;;;12.67;12.33;;;;;19.66;100.00;99764.50;6324881;20;2796519;-48
2023/07/14 03:40:49;;;;;;;;;14.00;14.00;;;;;19.76;100.00;99759.03;6323122;20;3529460;-46
2023/07/14 03:43:18;;;;;;;;;9.80;7.80;;;;;19.74;100.00;99759.16;6316447;20;2746121;-46
2023/07/14 03:45:45;;;;;;;;;15.50;13.50;;;;;19.81;100.00;99746.66;6326950;20;2492028;-49
2023/07/14 03:48:13;;;;;;;;;16.00;13.67;;;;;19.99;100.00;99757.59;6295707;20;2483602;-50
2023/07/14 03:50:40;;;;;;;;;15.50;15.50;;;;;19.82;100.00;99759.25;6324377;20;2483603;-52
2023/07/14 03:53:10;;;;;;;;;15.50;14.00;;;;;19.66;100.00;99759.03;6292985;20;2496122;-49
2023/07/14 03:55:39;;;;;;;;;13.33;13.33;;;;;19.92;100.00;99765.53;6293390;20;3519060;-50
2023/07/14 03:58:07;;;;;;;;;14.33;14.00;;;;;19.82;100.00;99758.41;6291418;20;3529449;-49
2023/07/14 04:00:34;;;;;;;;;16.00;13.00;;;;;19.78;100.00;99767.91;6293883;20;2486047;-48
2023/07/14 04:03:02;;;;;;;;;14.33;14.33;;;;;19.63;100.00;99772.97;6295055;20;3539333;-46
2023/07/14 04:05:30;;;;;;;;;13.50;13.50;;;;;19.76;100.00;99776.22;6292848;20;2801550;-52
2023/07/14 04:07:59;;;;;;;;;16.00;14.67;;;;;20.04;100.00;99784.41;6292805;20;2803533;-51
2023/07/14 04:10:27;;;;;;;;;13.00;13.00;;;;;20.15;100.00;99786.91;6324140;20;2808617;-46
2023/07/14 04:12:59;;;;;;;;;13.50;13.50;;;;;20.10;100.00;99784.63;6293131;20;2810646;-50
2023/07/14 04:15:27;;;;;;;;;14.33;14.33;;;;;20.21;100.00;99785.44;6294880;20;3537765;-46
2023/07/14 04:17:55;;;;;;;;;17.00;14.00;;;;;20.32;100.00;99783.34;6296887;20;3548172;-54
2023/07/14 04:20:23;;;;;;;;;15.00;15.00;;;;;20.33;100.00;99785.06;6324676;20;3538881;-49
2023/07/14 04:22:51;;;;;;;;;15.33;13.00;;;;;20.56;100.00;99796.41;6323703;20;2491970;-47
2023/07/14 04:25:19;;;;;;;;;14.00;14.00;;;;;20.53;100.00;99779.44;6325664;20;2483594;-48
2023/07/14 04:27:47;;;;;;;;;14.50;12.50;;;;;20.47;100.00;99793.72;6295433;20;2793003;-51
2023/07/14 04:30:15;;;;;;;;;14.67;14.67;;;;;20.28;100.00;99801.03;6290404;20;2483634;-48
2023/07/14 04:32:45;;;;;;;;;16.00;15.00;;;;;20.59;100.00;99801.56;6321797;20;3552421;-47
2023/07/14 04:35:13;;;;;;;;;14.00;14.00;;;;;20.68;100.00;99809.81;6289609;20;2803445;-47
2023/07/14 04:37:42;;;;;;;;;11.67;11.67;;;;;20.70;98.70;99808.63;6291143;20;3531644;-48
2023/07/14 04:40:10;;;;;;;;;15.67;14.00;;;;;20.49;99.42;99806.19;6293291;20;2492020;-51
2023/07/14 04:42:57;;;;;;;;;19.00;14.67;;;;;20.65;100.00;99805.53;6325525;20;3550640;-48
2023/07/14 04:45:25;;;;;;;;;9.67;9.67;;;;;20.94;97.56;99802.53;6324000;20;2788900;-50
2023/07/14 04:47:53;;;;;;;;;15.67;14.67;;;;;20.88;97.58;99803.16;6320741;20;3543082;-53
2023/07/14 04:50:21;;;;;;;;;16.67;15.00;;;;;20.80;97.02;99809.41;6286331;20;2483689;-49
2023/07/14 04:52:49;;;;;;;;;15.00;14.00;;;;;20.97;96.19;99809.53;6318351;20;2785692;-49
2023/07/14 04:55:17;;;;;;;;;13.00;13.00;;;;;21.55;92.11;99811.69;6288602;20;2491967;-47
2023/07/14 04:57:47;;;;;;;;;13.00;13.00;;;;;21.30;94.41;99812.50;6317794;20;2633633;-49
2023/07/14 05:00:18;;;;;;;;;14.33;13.33;;;;;21.27;91.68;99811.84;6320375;20;2483864;-50
2023/07/14 05:02:47;;;;;;;;;11.33;11.33;;;;;21.41;90.82;99815.03;6315168;20;3526435;-49
2023/07/14 05:05:22;;;;;;;;;13.67;12.00;;;;;22.08;85.93;99815.16;6285635;20;3523171;-52
2023/07/14 05:07:52;;;;;;;;;14.67;14.67;;;;;22.64;84.62;99826.44;6317694;20;2483645;-50
2023/07/14 05:10:22;;;;;;;;;13.00;13.00;;;;;22.72;82.07;99835.53;6314807;20;3529421;-46
2023/07/14 05:12:55;;;;;;;;;13.00;12.00;;;;;22.00;87.57;99828.81;6284056;20;2491985;-51
2023/07/14 05:15:25;;;;;;;;;13.33;13.33;;;;;21.90;88.50;99828.94;6318014;20;3539905;-47
2023/07/14 05:17:55;;;;;;;;;11.33;11.33;;;;;22.72;84.86;99834.66;6286382;20;2491993;-47
2023/07/14 05:20:23;;;;;;;;;12.67;12.67;;;;;21.90;88.38;99839.88;6317498;20;3520046;-49
2023/07/14 05:22:53;;;;;;;;;11.50;11.50;;;;;22.02;89.05;99838.56;6314584;20;2800518;-46
2023/07/14 05:25:21;;;;;;;;;13.33;13.33;;;;;21.72;90.75;99844.56;6288326;20;2500316;-48
2023/07/14 05:27:50;;;;;;;;;12.00;12.00;;;;;21.96;89.38;99839.22;6315043;20;3526478;-46
2023/07/14 05:30:20;;;;;;;;;13.00;12.00;;;;;21.97;90.50;99840.94;6284880;20;3523748;-48
2023/07/14 05:32:49;;;;;;;;;13.67;13.33;;;;;22.10;89.56;99845.94;6283247;20;3526383;-49
2023/07/14 05:35:18;;;;;;;;;15.00;14.00;;;;;22.03;90.20;99843.00;6284146;20;2808751;-50
2023/07/14 05:37:46;;;;;;;;;13.67;13.67;;;;;22.31;88.45;99851.84;6280071;20;3533578;-50
2023/07/14 05:40:16;;;;;;;;;12.67;12.67;;;;;22.63;86.54;99860.31;6286913;20;2483636;-46
2023/07/14 05:42:46;;;;;;;;;14.00;14.00;;;;;22.57;86.69;99859.97;6317371;20;2483576;-49
2023/07/14 05:45:15;;;;;;;;;12.00;11.67;;;;;22.33;87.22;99862.66;6318740;20;3527416;-48
2023/07/14 05:47:46;;;;;;;;;15.00;15.00;;;;;22.76;85.32;99863.44;6318761;20;3546147;-47
2023/07/14 05:50:16;;;;;;;;;12.50;12.50;;;;;22.46;83.42;99865.78;6340353;20;2805590;-52
2023/07/14 05:52:45;;;;;;;;;12.00;12.00;;;;;22.71;83.59;99863.06;6315566;20;3510652;-49
2023/07/14 05:55:14;;;;;;;;;11.00;10.00;;;;;22.92;83.40;99870.81;6323282;20;2786855;-48
2023/07/14 05:57:43;;;;;;;;;10.33;10.33;;;;;22.73;82.09;99878.31;6313946;20;3513822;-47
2023/07/14 06:00:18;;;;;;;;;10.67;10.67;;;;;22.98;82.70;99873.72;6315639;20;3513002;-51
2023/07/14 06:02:49;;;;;;;;;12.67;11.67;;;;;22.67;81.63;99873.50;6315970;20;3510742;-49
2023/07/14 06:05:19;;;;;;;;;10.33;9.00;;;;;23.08;80.60;99875.47;6312712;20;3494133;-50
2023/07/14 06:07:47;;;;;;;;;9.67;9.67;;;;;23.08;79.58;99870.00;6312916;20;3489846;-49
2023/07/14 06:10:16;;;;;;;;;8.67;8.67;;;;;23.36;79.08;99871.34;6312196;20;2766957;-47
2023/07/14 06:12:44;;;;;;;;;8.00;8.00;;;;;23.17;79.53;99877.16;6316797;20;2752480;-51
2023/07/14 06:15:12;;;;;;;;;7.00;7.00;;;;;23.47;78.73;99881.09;6316083;20;2756756;-47
2023/07/14 06:17:41;;;;;;;;;10.33;8.00;;;;;23.63;75.87;99878.34;6310703;20;2777357;-51
2023/07/14 06:20:11;;;;;;;;;9.67;9.67;;;;;23.72;76.93;99890.16;6315934;20;2779447;-48
2023/07/14 06:22:40;;;;;;;;;10.33;9.00;;;;;23.78;76.80;99891.38;6313308;20;2783550;-47
2023/07/14 06:25:08;;;;;;;;;8.00;8.00;;;;;23.71;77.73;99884.84;6322571;20;2754471;-48
2023/07/14 06:27:36;;;;;;;;;7.67;7.67;;;;;23.79;76.40;99896.66;6312466;20;3457550;-50
2023/07/14 06:30:07;;;;;;;;;8.50;8.50;;;;;23.98;76.88;99892.66;6339873;20;2631529;-49
2023/07/14 06:32:35;;;;;;;;;8.00;8.00;;;;;24.22;77.44;99888.13;6313423;20;2752508;-47
2023/07/14 06:35:03;;;;;;;;;9.00;7.00;;;;;24.63;75.55;99891.56;6316662;20;2750342;-51
2023/07/14 06:37:33;;;;;;;;;9.40;8.20;;;;;24.64;74.24;99893.28;6339479;20;2748354;-49
2023/07/14 06:40:04;;;;;;;;;6.80;6.80;;;;;24.87;71.86;99900.69;6313350;20;2745111;-52
2023/07/14 06:42:32;;;;;;;;;7.00;6.00;;;;;24.85;73.55;99894.53;6295627;20;2725437;-49
2023/07/14 06:45:03;;;;;;;;;8.00;8.00;;;;;25.35;72.35;99896.72;6338096;20;2735762;-49
2023/07/14 06:47:35;;;;;;;;;5.00;5.00;;;;;25.46;70.98;99897.34;6284154;20;2746351;-52
2023/07/14 06:50:03;;;;;;;;;5.00;5.00;;;;;25.71;69.89;99898.81;6325789;20;2621188;-52
2023/07/14 06:52:37;;;;;;;;;3.00;3.00;;;;;25.56;68.75;99897.94;6341671;20;2732704;-49
2023/07/14 06:55:06;;;;;;;;;4.80;4.80;;;;;25.63;68.98;99904.41;6341329;20;2733731;-51
2023/07/14 06:57:36;;;;;;;;;5.20;5.20;;;;;26.21;67.43;99904.66;6308765;20;2738937;-52
2023/07/14 07:00:11;;;;;;;;;5.20;4.40;;;;;26.41;68.33;99897.53;6310390;20;2732571;-51
2023/07/14 07:02:41;;;;;;;;;4.40;4.40;;;;;26.46;66.67;99899.69;6312035;20;2748264;-47
2023/07/14 07:05:10;;;;;;;;;4.40;4.40;;;;;27.05;64.39;99906.97;6311486;20;2725372;-48
2023/07/14 07:07:38;;;;;;;;;4.67;4.67;;;;;26.87;65.79;99915.69;6317457;20;2738855;-47
2023/07/14 07:10:08;;;;;;;;;2.00;2.00;;;;;26.66;65.96;99913.75;6341054;20;2744104;-49
2023/07/14 07:12:38;;;;;;;;;0.00;0.00;;;;;26.83;64.67;99920.75;6304877;20;2728441;-51
2023/07/14 07:15:06;;;;;;;;;4.00;4.00;;;;;26.66;64.66;99911.00;6318004;20;2745165;-50
2023/07/14 07:17:37;;;;;;;;;5.00;5.00;;;;;27.15;63.73;99921.31;6315056;20;2739972;-51
2023/07/14 07:20:07;;;;;;;;;3.00;3.00;;;;;26.83;63.30;99908.84;6341864;20;2748244;-48
2023/07/14 07:22:37;;;;;;;;;4.40;4.40;;;;;27.14;64.34;99922.34;6310856;20;2741944;-50
2023/07/14 07:25:07;;;;;;;;;4.00;4.00;;;;;27.85;61.31;99914.09;6309756;20;2747181;-48
2023/07/14 07:27:35;;;;;;;;;4.00;4.00;;;;;27.14;63.70;99912.16;6281680;20;2748184;-49
2023/07/14 07:30:04;;;;;;;;;5.00;5.00;;;;;27.67;63.84;99917.31;6317640;20;2739971;-50
2023/07/14 07:32:32;;;;;;;;;3.33;3.33;;;;;27.92;61.08;99911.41;6316800;20;2747366;-50
2023/07/14 07:35:01;;;;;;;;;4.33;4.33;;;;;27.38;61.96;99912.00;6318403;20;2740878;-51
2023/07/14 07:37:33;;;;;;;;;4.33;4.33;;;;;27.98;61.87;99922.47;6314279;20;2738862;-49
2023/07/14 07:40:06;;;;;;;;;5.00;5.00;;;;;27.34;61.70;99919.81;6318431;20;2748235;-52
2023/07/14 07:42:35;;;;;;;;;5.00;5.00;;;;;28.20;61.58;99927.91;6315091;20;2748310;-52
2023/07/14 07:45:04;;;;;;;;;4.40;4.40;;;;;28.06;60.74;99924.22;6340450;20;2733606;-52
2023/07/14 07:47:33;;;;;;;;;4.00;4.00;;;;;27.72;60.86;99934.13;6281157;20;2746163;-52
2023/07/14 07:50:03;;;;;;;;;4.20;2.80;;;;;27.69;62.00;99933.69;6338650;20;2740044;-51
2023/07/14 07:52:33;;;;;;;;;4.00;4.00;;;;;28.29;59.68;99934.16;6306757;20;2735782;-47
2023/07/14 07:55:01;;;;;;;;;5.00;5.00;;;;;27.70;59.52;99933.50;6287299;20;2736728;-50
2023/07/14 07:57:29;;;;;;;;;4.33;4.33;;;;;27.84;60.75;99933.63;6313765;20;2745074;-48
2023/07/14 07:59:57;;;;;;;;;5.00;5.00;;;;;28.01;59.13;99932.25;6309000;20;2743000;-51
2023/07/14 08:02:25;;;;;;;;;4.33;4.33;;;;;28.48;57.07;99944.47;6316453;20;2732599;-49
2023/07/14 08:04:54;;;;;;;;;5.40;4.80;;;;;27.84;60.77;99941.91;6340443;20;2746104;-51
2023/07/14 08:07:22;;;;;;;;;5.00;5.00;;;;;28.61;57.41;99944.53;6283361;20;2741087;-51
2023/07/14 08:09:53;;;;;;;;;5.33;5.33;;;;;28.84;55.61;99943.34;6316876;20;2737852;-50
2023/07/14 08:12:21;;;;;;;;;6.33;6.33;;;;;29.55;54.36;99945.66;6312676;20;2746238;-51
2023/07/14 08:14:57;;;;;;;;;5.00;5.00;;;;;29.33;55.11;99939.44;6316914;20;2744148;-52
2023/07/14 08:17:29;;;;;;;;;4.33;4.33;;;;;28.49;54.34;99945.31;6312571;20;2748250;-48
2023/07/14 08:19:59;;;;;;;;;5.67;4.33;;;;;27.39;59.07;99935.78;6316528;20;2751349;-50
2023/07/14 08:22:27;;;;;;;;;5.00;5.00;;;;;27.19;61.66;99936.41;6312295;20;2741955;-48
2023/07/14 08:24:57;;;;;;;;;5.40;5.40;;;;;27.21;59.40;99942.59;6342415;20;2743003;-50
2023/07/14 08:27:25;;;;;;;;;6.00;5.33;;;;;28.26;57.95;99940.94;6285971;20;2730499;-51
2023/07/14 08:29:54;;;;;;;;;6.00;5.00;;;;;28.28;57.43;99941.59;6319996;20;2743178;-49
2023/07/14 08:32:23;;;;;;;;;4.20;3.80;;;;;29.49;54.62;99946.50;6338702;20;2735750;-47
2023/07/14 08:34:51;;;;;;;;;4.00;4.00;;;;;28.51;55.84;99938.53;6288195;20;2747160;-52
2023/07/14 08:37:19;;;;;;;;;4.00;4.00;;;;;29.41;54.48;99953.09;6319472;20;2746156;-51
2023/07/14 08:39:47;;;;;;;;;3.67;3.67;;;;;28.59;55.85;99941.09;6322875;20;2731523;-48
2023/07/14 08:42:38;;;;;;;;;6.00;6.00;;;;;28.64;55.28;99944.09;6320344;20;2734645;-50
2023/07/14 08:45:33;;;;;;;;;4.67;4.67;;;;;28.86;54.71;99947.63;6319276;20;2741740;-53
2023/07/14 08:48:29;;;;;;;;;10.00;6.67;;;;;29.63;54.13;99947.38;6315294;20;2756524;-49
2023/07/14 08:51:12;;;;;;;;;6.67;6.67;;;;;29.50;52.76;99948.22;6321487;20;2734667;-49
2023/07/14 08:53:49;;;;;;;;;5.00;5.00;;;;;29.35;54.31;99942.03;6320093;20;2746081;-48
2023/07/14 08:56:20;;;;;;;;;5.33;5.33;;;;;30.05;52.56;99951.63;6320860;20;2746250;-47
2023/07/14 08:58:50;;;;;;;;;5.33;4.00;;;;;29.37;53.97;99943.50;6319827;20;2735762;-52
2023/07/14 09:01:38;;;;;;;;;5.33;5.33;;;;;29.92;53.89;99944.19;6326394;20;2748202;-47
2023/07/14 09:04:18;;;;;;;;;5.33;5.33;;;;;29.67;53.49;99943.13;6315143;20;2738860;-52
2023/07/14 09:06:47;;;;;;;;;6.00;6.00;;;;;28.05;58.64;99939.09;6316646;20;2744028;-49
2023/07/14 09:09:31;;;;;;;;;5.33;4.00;;;;;28.53;54.51;99938.34;6317852;20;2740985;-49
2023/07/14 09:12:51;;;;;;;;;6.33;6.00;;;;;28.42;56.29;99945.25;6321490;20;2737754;-50
2023/07/14 09:15:24;;;;;;;;;5.33;5.33;;;;;27.22;59.55;99936.00;6318959;20;2739212;-49
2023/07/14 09:18:47;;;;;;;;;6.00;4.67;;;;;28.92;55.37;99934.03;6314696;20;2742984;-48
2023/07/14 09:21:39;;;;;;;;;4.00;4.00;;;;;29.22;54.58;99935.38;6321037;20;2725328;-48
2023/07/14 09:24:12;;;;;;;;;5.00;5.00;;;;;28.87;56.54;99926.34;6319406;20;2737864;-48
2023/07/14 09:26:44;;;;;;;;;7.00;5.67;;;;;29.71;54.14;99939.72;6320817;20;2737713;-50
2023/07/14 09:29:29;;;;;;;;;6.00;6.00;;;;;29.22;54.76;99929.00;6317246;20;2734713;-53
2023/07/14 09:32:35;;;;;;;;;5.67;5.67;;;;;29.74;54.10;99938.44;6318499;20;2738853;-49
2023/07/14 09:35:24;;;;;;;;;8.00;7.00;;;;;29.05;55.33;99947.91;6317241;20;2750351;-50
2023/07/14 09:38:34;;;;;;;;;6.67;6.67;;;;;29.20;54.22;99953.25;6314384;20;2750397;-52
2023/07/14 09:41:04;;;;;;;;;7.00;7.00;;;;;29.67;51.03;99954.19;6314530;20;2748303;-52
2023/07/14 09:43:33;;;;;;;;;5.00;5.00;;;;;29.14;52.57;99945.81;6313137;20;2741055;-48
2023/07/14 09:46:01;;;;;;;;;7.00;7.00;;;;;30.12;51.80;99954.38;6323190;20;2752360;-49
2023/07/14 09:48:34;;;;;;;;;6.00;6.00;;;;;28.26;54.85;99945.59;6314878;20;2737810;-49
2023/07/14 09:51:09;;;;;;;;;10.33;9.00;;;;;27.91;57.92;99948.31;6311489;20;3496155;-51
2023/07/14 09:53:39;;;;;;;;;9.67;9.67;;;;;29.72;53.89;99946.09;6312186;20;3489842;-51
2023/07/14 09:56:17;;;;;;;;;10.67;10.67;;;;;29.63;52.01;99944.59;6320226;20;2777418;-49
2023/07/14 09:58:59;;;;;;;;;7.33;7.33;;;;;29.05;54.00;99936.84;6316302;20;2744053;-52
2023/07/14 10:01:32;;;;;;;;;6.00;6.00;;;;;28.99;52.65;99935.75;6317378;20;2731657;-52
2023/07/14 10:04:13;;;;;;;;;8.00;8.00;;;;;29.35;52.81;99934.56;6320768;20;2748183;-52
2023/07/14 10:06:41;;;;;;;;;8.00;6.67;;;;;29.58;52.78;99936.09;6322952;20;2748186;-53
2023/07/14 10:09:13;;;;;;;;;9.00;7.67;;;;;28.99;52.26;99924.69;6316649;20;2750415;-49
2023/07/14 10:11:45;;;;;;;;;6.33;6.33;;;;;29.04;52.54;99927.72;6315215;20;2752761;-48
2023/07/14 10:14:35;;;;;;;;;6.67;6.33;;;;;28.70;52.92;99928.66;6315629;20;2746238;-53
2023/07/14 10:17:04;;;;;;;;;6.00;6.00;;;;;28.97;53.76;99924.03;6316750;20;2734794;-48
2023/07/14 10:19:41;;;;;;;;;7.00;7.00;;;;;29.35;52.08;99919.88;6314324;20;2748229;-50
2023/07/14 10:22:18;;;;;;;;;7.00;7.00;;;;;29.88;52.23;99929.06;6317378;20;2739961;-48
2023/07/14 10:24:55;;;;;;;;;7.00;7.00;;;;;28.78;53.37;99919.28;6317344;20;2752527;-49
2023/07/14 10:27:30;;;;;;;;;8.33;8.33;;;;;28.77;54.66;99920.34;6310962;20;2751375;-49
2023/07/14 10:29:58;;;;;;;;;9.67;8.00;;;;;28.22;54.64;99917.53;6315195;20;2761827;-53
2023/07/14 10:32:40;;;;;;;;;7.00;6.00;;;;;28.36;51.59;99929.53;6317265;20;2744131;-54
2023/07/14 10:35:19;;;;;;;;;6.00;6.00;;;;;29.00;51.09;99920.84;6317640;20;2741975;-50
2023/07/14 10:38:34;;;;;;;;;8.00;8.00;;;;;30.09;51.39;99924.34;6323919;20;2748214;-48
2023/07/14 10:41:07;;;;;;;;;7.00;7.00;;;;;29.59;51.77;99915.63;6315452;20;2754453;-53
2023/07/14 10:44:01;;;;;;;;;6.33;6.33;;;;;29.82;51.28;99918.00;6316733;20;2734787;-53
2023/07/14 10:46:43;;;;;;;;;7.00;5.33;;;;;29.90;49.23;99921.41;6311741;20;2737900;-53
2023/07/14 10:49:14;;;;;;;;;5.33;5.33;;;;;29.48;49.68;99915.22;6315467;20;2737534;-53
2023/07/14 10:52:18;;;;;;;;;5.00;5.00;;;;;29.66;51.41;99908.22;6316924;20;2734668;-51
2023/07/14 10:55:15;;;;;;;;;5.00;5.00;;;;;29.97;48.62;99911.16;6322027;20;2740931;-51
2023/07/14 10:58:09;;;;;;;;;5.67;5.67;;;;;29.86;49.79;99911.84;6316776;20;2734619;-51
2023/07/14 11:00:47;;;;;;;;;4.67;4.33;;;;;29.68;48.78;99895.03;6315385;20;2733639;-50
2023/07/14 11:03:40;;;;;;;;;7.33;6.00;;;;;29.51;50.82;99898.19;6318391;20;2744065;-47
2023/07/14 11:06:20;;;;;;;;;6.67;6.67;;;;;30.13;50.20;99897.94;6322938;20;2746165;-51
2023/07/14 11:08:55;;;;;;;;;4.80;3.60;;;;;30.15;47.10;99898.56;6338881;20;2746223;-50
2023/07/14 11:11:49;;;;;;;;;6.00;6.00;;;;;30.03;48.30;99892.84;6285632;20;2752427;-52
2023/07/14 11:14:53;;;;;;;;;6.67;6.67;;;;;29.21;52.09;99894.13;6319932;20;2754554;-53
2023/07/14 11:17:51;;;;;;;;;8.00;8.00;;;;;29.61;49.19;99888.59;6308995;20;2743116;-49
2023/07/14 11:20:39;;;;;;;;;7.00;7.00;;;;;30.04;49.26;99893.69;6315163;20;2750249;-49
2023/07/14 11:23:32;;;;;;;;;6.00;6.00;;;;;29.80;48.38;99892.44;6315840;20;2744052;-49
2023/07/14 11:26:22;;;;;;;;;5.00;5.00;;;;;30.14;49.15;99883.84;6319900;20;2736733;-50
2023/07/14 11:29:19;;;;;;;;;7.00;7.00;;;;;30.25;48.11;99890.66;6310174;20;2748232;-48
2023/07/14 11:31:58;;;;;;;;;6.00;6.00;;;;;29.69;48.84;99880.97;6316114;20;2735707;-52
2023/07/14 11:34:36;;;;;;;;;7.00;7.00;;;;;29.01;51.05;99878.31;6311239;20;2756575;-49
2023/07/14 11:37:58;;;;;;;;;6.67;6.67;;;;;28.86;50.62;99883.19;6312154;20;2746226;-47
2023/07/14 11:40:36;;;;;;;;;7.67;7.67;;;;;29.30;51.55;99870.72;6311061;20;2745206;-49